sensor_id;sensor_type;location;lat;lon;timestamp;pressure;altitude;pressure_sealevel;temperature;humidity
51299;BME280;37382;45.192;9.790;2023-02-12T05:05:13;102878.44;;;0.19;100.00
51299;BME280;37382;45.192;9.790;2023-02-12T05:07:41;102870.97;;;-0.11;100.00
51299;BME280;37382;45.192;9.790;2023-02-12T05:10:10;102864.31;;;-0.39;100.00
51299;BME280;37382;45.192;9.790;2023-02-12T05:12:38;102865.53;;;-0.27;100.00
51299;BME280;37382;45.192;9.790;2023-02-12T05:15:05;102860.19;;;-0.09;100.00
51299;BME280;37382;45.192;9.790;2023-02-12T05:17:33;102877.50;;;0.20;100.00
51299;BME280;37382;45.192;9.790;2023-02-12T05:20:00;102866.00;;;0.18;100.00
51299;BME280;37382;45.192;9.790;2023-02-12T05:22:27;102868.13;;;0.11;100.00
51299;BME280;37382;45.192;9.790;2023-02-12T05:24:55;102863.16;;;-0.33;100.00
51299;BME280;37382;45.192;9.790;2023-02-12T05:27:24;102869.19;;;-0.10;100.00
51299;BME280;37382;45.192;9.790;2023-02-12T05:29:51;102864.81;;;0.24;100.00
51299;BME280;37382;45.192;9.790;2023-02-12T05:32:20;102859.47;;;0.24;100.00
51299;BME280;37382;45.192;9.790;2023-02-12T05:34:47;102855.91;;;-0.12;100.00
51299;BME280;37382;45.192;9.790;2023-02-12T05:37:15;102856.97;;;-0.16;100.00
51299;BME280;37382;45.192;9.790;2023-02-12T05:39:43;102857.34;;;0.13;100.00
51299;BME280;37382;45.192;9.790;2023-02-12T05:42:10;102859.25;;;0.11;100.00
51299;BME280;37382;45.192;9.790;2023-02-12T05:44:38;102862.16;;;-0.30;100.00
51299;BME280;37382;45.192;9.790;2023-02-12T05:47:05;102859.63;;;-0.52;100.00
51299;BME280;37382;45.192;9.790;2023-02-12T05:49:33;102864.13;;;-0.53;100.00
51299;BME280;37382;45.192;9.790;2023-02-12T05:52:00;102861.44;;;-0.53;100.00
51299;BME280;37382;45.192;9.790;2023-02-12T05:54:29;102867.72;;;-0.73;100.00
51299;BME280;37382;45.192;9.790;2023-02-12T05:56:56;102858.59;;;-0.69;100.00
51299;BME280;37382;45.192;9.790;2023-02-12T05:59:24;102854.84;;;-0.46;100.00
51299;BME280;37382;45.192;9.790;2023-02-12T06:01:51;102846.72;;;-0.25;100.00
51299;BME280;37382;45.192;9.790;2023-02-12T06:04:21;102850.41;;;0.09;100.00
51299;BME280;37382;45.192;9.790;2023-02-12T06:06:51;102857.81;;;0.21;100.00
51299;BME280;37382;45.192;9.790;2023-02-12T06:09:18;102852.06;;;0.29;100.00
51299;BME280;37382;45.192;9.790;2023-02-12T06:11:46;102853.06;;;-0.09;100.00
51299;BME280;37382;45.192;9.790;2023-02-12T06:14:15;102849.31;;;0.30;100.00
51299;BME280;37382;45.192;9.790;2023-02-12T06:16:48;102857.97;;;0.53;100.00
51299;BME280;37382;45.192;9.790;2023-02-12T06:19:17;102861.69;;;0.50;100.00
51299;BME280;37382;45.192;9.790;2023-02-12T06:21:46;102865.78;;;0.40;100.00
51299;BME280;37382;45.192;9.790;2023-02-12T06:24:15;102860.41;;;0.40;100.00
51299;BME280;37382;45.192;9.790;2023-02-12T06:26:42;102861.25;;;0.06;100.00
51299;BME280;37382;45.192;9.790;2023-02-12T06:29:10;102871.41;;;-0.38;100.00
51299;BME280;37382;45.192;9.790;2023-02-12T06:31:39;102879.72;;;-0.44;100.00
51299;BME280;37382;45.192;9.790;2023-02-12T06:34:09;102877.53;;;-0.36;100.00
51299;BME280;37382;45.192;9.790;2023-02-12T06:36:39;102873.78;;;-0.50;100.00
51299;BME280;37382;45.192;9.790;2023-02-12T06:39:07;102868.94;;;-0.42;100.00
51299;BME280;37382;45.192;9.790;2023-02-12T06:41:34;102864.47;;;-0.42;100.00
51299;BME280;37382;45.192;9.790;2023-02-12T06:44:03;102876.44;;;-0.31;100.00
51299;BME280;37382;45.192;9.790;2023-02-12T06:46:31;102886.06;;;-0.46;100.00
51299;BME280;37382;45.192;9.790;2023-02-12T06:48:59;102890.72;;;-0.50;100.00
51299;BME280;37382;45.192;9.790;2023-02-12T06:51:28;102897.72;;;-0.11;100.00
51299;BME280;37382;45.192;9.790;2023-02-12T06:53:55;102903.16;;;0.07;100.00
51299;BME280;37382;45.192;9.790;2023-02-12T06:56:25;102913.69;;;-0.27;100.00
51299;BME280;37382;45.192;9.790;2023-02-12T06:58:55;102921.34;;;-0.57;100.00
51299;BME280;37382;45.192;9.790;2023-02-12T07:01:26;102924.97;;;-0.39;100.00
51299;BME280;37382;45.192;9.790;2023-02-12T07:03:59;102929.16;;;-0.33;100.00
51299;BME280;37382;45.192;9.790;2023-02-12T07:06:30;102927.25;;;-0.12;100.00
51299;BME280;37382;45.192;9.790;2023-02-12T07:08:58;102922.13;;;-0.55;100.00
51299;BME280;37382;45.192;9.790;2023-02-12T07:11:28;102937.16;;;-0.52;100.00
51299;BME280;37382;45.192;9.790;2023-02-12T07:13:56;102944.03;;;-0.28;100.00
51299;BME280;37382;45.192;9.790;2023-02-12T07:16:24;102932.13;;;0.33;100.00
51299;BME280;37382;45.192;9.790;2023-02-12T07:18:52;102929.81;;;0.08;100.00
51299;BME280;37382;45.192;9.790;2023-02-12T07:21:20;102938.69;;;-0.09;100.00
51299;BME280;37382;45.192;9.790;2023-02-12T07:23:49;102931.50;;;0.11;100.00
51299;BME280;37382;45.192;9.790;2023-02-12T07:26:19;102939.75;;;-0.13;100.00
51299;BME280;37382;45.192;9.790;2023-02-12T07:28:47;102939.97;;;0.02;100.00
51299;BME280;37382;45.192;9.790;2023-02-12T07:31:17;102936.78;;;-0.07;100.00
51299;BME280;37382;45.192;9.790;2023-02-12T07:33:46;102937.72;;;0.11;100.00
51299;BME280;37382;45.192;9.790;2023-02-12T07:36:16;102941.31;;;0.64;100.00
51299;BME280;37382;45.192;9.790;2023-02-12T07:38:43;102935.97;;;0.64;100.00
51299;BME280;37382;45.192;9.790;2023-02-12T07:41:17;102941.63;;;0.58;100.00
51299;BME280;37382;45.192;9.790;2023-02-12T07:43:47;102941.38;;;0.80;100.00
51299;BME280;37382;45.192;9.790;2023-02-12T07:46:17;102943.22;;;0.80;100.00
51299;BME280;37382;45.192;9.790;2023-02-12T07:48:45;102942.31;;;1.14;100.00
51299;BME280;37382;45.192;9.790;2023-02-12T07:51:15;102941.94;;;1.38;100.00
51299;BME280;37382;45.192;9.790;2023-02-12T07:53:43;102942.06;;;1.52;100.00
51299;BME280;37382;45.192;9.790;2023-02-12T07:56:17;102947.81;;;1.45;100.00
51299;BME280;37382;45.192;9.790;2023-02-12T07:58:45;102942.00;;;1.36;100.00
51299;BME280;37382;45.192;9.790;2023-02-12T08:01:17;102949.25;;;1.68;100.00
51299;BME280;37382;45.192;9.790;2023-02-12T08:03:45;102944.91;;;1.65;100.00
51299;BME280;37382;45.192;9.790;2023-02-12T08:06:21;102948.28;;;1.69;100.00
51299;BME280;37382;45.192;9.790;2023-02-12T08:08:57;102951.78;;;2.03;100.00
51299;BME280;37382;45.192;9.790;2023-02-12T08:11:26;102947.09;;;2.06;100.00
51299;BME280;37382;45.192;9.790;2023-02-12T08:13:54;102944.53;;;2.19;100.00
51299;BME280;37382;45.192;9.790;2023-02-12T08:16:23;102944.13;;;2.27;100.00
51299;BME280;37382;45.192;9.790;2023-02-12T08:18:52;102951.88;;;2.47;100.00
51299;BME280;37382;45.192;9.790;2023-02-12T08:21:23;102954.97;;;2.56;100.00
51299;BME280;37382;45.192;9.790;2023-02-12T08:23:53;102964.53;;;2.45;100.00
51299;BME280;37382;45.192;9.790;2023-02-12T08:26:29;102958.81;;;2.52;100.00
51299;BME280;37382;45.192;9.790;2023-02-12T08:29:00;102959.47;;;2.71;100.00
51299;BME280;37382;45.192;9.790;2023-02-12T08:31:33;102959.09;;;2.77;100.00
51299;BME280;37382;45.192;9.790;2023-02-12T08:34:01;102966.59;;;2.87;100.00
51299;BME280;37382;45.192;9.790;2023-02-12T08:36:39;102958.63;;;2.99;100.00
51299;BME280;37382;45.192;9.790;2023-02-12T08:39:07;102968.16;;;3.05;100.00
51299;BME280;37382;45.192;9.790;2023-02-12T08:41:35;102969.16;;;3.18;100.00
51299;BME280;37382;45.192;9.790;2023-02-12T08:44:04;102966.56;;;3.31;100.00
51299;BME280;37382;45.192;9.790;2023-02-12T08:46:34;102956.75;;;3.59;100.00
51299;BME280;37382;45.192;9.790;2023-02-12T08:49:09;102961.53;;;3.68;100.00
51299;BME280;37382;45.192;9.790;2023-02-12T08:51:39;102969.81;;;3.36;100.00
51299;BME280;37382;45.192;9.790;2023-02-12T08:54:11;102970.19;;;3.59;100.00
51299;BME280;37382;45.192;9.790;2023-02-12T08:56:39;102969.53;;;3.70;100.00
51299;BME280;37382;45.192;9.790;2023-02-12T08:59:09;102981.34;;;3.96;100.00
51299;BME280;37382;45.192;9.790;2023-02-12T09:01:38;102989.81;;;3.90;100.00
51299;BME280;37382;45.192;9.790;2023-02-12T09:04:14;102986.66;;;4.52;100.00
51299;BME280;37382;45.192;9.790;2023-02-12T09:06:45;102982.41;;;4.75;100.00
51299;BME280;37382;45.192;9.790;2023-02-12T09:09:13;102996.03;;;4.59;100.00
51299;BME280;37382;45.192;9.790;2023-02-12T09:11:41;102991.78;;;4.82;100.00
51299;BME280;37382;45.192;9.790;2023-02-12T09:14:13;102986.91;;;4.62;100.00
51299;BME280;37382;45.192;9.790;2023-02-12T09:16:41;102986.47;;;4.68;100.00
51299;BME280;37382;45.192;9.790;2023-02-12T09:19:12;102992.19;;;4.63;100.00
51299;BME280;37382;45.192;9.790;2023-02-12T09:21:40;102989.09;;;4.82;100.00
51299;BME280;37382;45.192;9.790;2023-02-12T09:24:08;102990.56;;;5.14;100.00
51299;BME280;37382;45.192;9.790;2023-02-12T09:26:36;102991.72;;;5.10;100.00
51299;BME280;37382;45.192;9.790;2023-02-12T09:29:04;102984.31;;;5.13;100.00
51299;BME280;37382;45.192;9.790;2023-02-12T09:31:32;102988.28;;;5.08;100.00
51299;BME280;37382;45.192;9.790;2023-02-12T09:34:02;102994.31;;;5.11;100.00
51299;BME280;37382;45.192;9.790;2023-02-12T09:36:31;102986.31;;;5.10;100.00
51299;BME280;37382;45.192;9.790;2023-02-12T09:38:59;102990.34;;;5.43;100.00
51299;BME280;37382;45.192;9.790;2023-02-12T09:50:45;103000.38;;;5.66;100.00
51299;BME280;37382;45.192;9.790;2023-02-12T09:53:17;103003.94;;;5.67;100.00
51299;BME280;37382;45.192;9.790;2023-02-12T09:55:46;103003.88;;;6.05;100.00
51299;BME280;37382;45.192;9.790;2023-02-12T10:00:53;103007.72;;;6.27;100.00
51299;BME280;37382;45.192;9.790;2023-02-12T10:03:21;103007.47;;;6.30;100.00
51299;BME280;37382;45.192;9.790;2023-02-12T10:05:52;103014.69;;;6.67;100.00
51299;BME280;37382;45.192;9.790;2023-02-12T10:08:33;103006.88;;;6.75;100.00
51299;BME280;37382;45.192;9.790;2023-02-12T10:17:22;103019.06;;;7.16;100.00
51299;BME280;37382;45.192;9.790;2023-02-12T10:28:10;103000.66;;;7.89;100.00
51299;BME280;37382;45.192;9.790;2023-02-12T10:31:11;103003.63;;;8.41;100.00
51299;BME280;37382;45.192;9.790;2023-02-12T10:33:38;103004.69;;;8.06;100.00
51299;BME280;37382;45.192;9.790;2023-02-12T10:36:41;103000.75;;;7.76;100.00
51299;BME280;37382;45.192;9.790;2023-02-12T10:41:42;103001.84;;;8.08;100.00
51299;BME280;37382;45.192;9.790;2023-02-12T10:44:10;102998.75;;;8.67;100.00
51299;BME280;37382;45.192;9.790;2023-02-12T10:46:38;102992.66;;;8.43;100.00
51299;BME280;37382;45.192;9.790;2023-02-12T10:49:07;102990.47;;;8.36;100.00
51299;BME280;37382;45.192;9.790;2023-02-12T10:54:37;102973.03;;;8.83;100.00
51299;BME280;37382;45.192;9.790;2023-02-12T10:57:26;102960.84;;;9.19;100.00
51299;BME280;37382;45.192;9.790;2023-02-12T10:59:55;102965.38;;;9.09;100.00
51299;BME280;37382;45.192;9.790;2023-02-12T11:02:29;102953.97;;;9.15;100.00
51299;BME280;37382;45.192;9.790;2023-02-12T11:04:59;102943.78;;;9.07;100.00
51299;BME280;37382;45.192;9.790;2023-02-12T11:07:27;102944.97;;;8.94;100.00
51299;BME280;37382;45.192;9.790;2023-02-12T11:09:56;102940.22;;;9.38;100.00
51299;BME280;37382;45.192;9.790;2023-02-12T11:12:35;102934.63;;;9.70;100.00
51299;BME280;37382;45.192;9.790;2023-02-12T11:15:16;102934.34;;;9.73;100.00
51299;BME280;37382;45.192;9.790;2023-02-12T11:17:55;102928.22;;;9.81;100.00
51299;BME280;37382;45.192;9.790;2023-02-12T11:20:29;102912.84;;;9.60;100.00
51299;BME280;37382;45.192;9.790;2023-02-12T11:23:03;102914.78;;;9.89;100.00
51299;BME280;37382;45.192;9.790;2023-02-12T11:25:35;102911.56;;;10.25;100.00
51299;BME280;37382;45.192;9.790;2023-02-12T11:28:16;102912.25;;;10.07;100.00
51299;BME280;37382;45.192;9.790;2023-02-12T11:33:35;102919.25;;;10.00;100.00
51299;BME280;37382;45.192;9.790;2023-02-12T11:36:22;102906.44;;;10.51;100.00
51299;BME280;37382;45.192;9.790;2023-02-12T11:38:55;102901.84;;;10.61;100.00
51299;BME280;37382;45.192;9.790;2023-02-12T11:41:35;102894.81;;;10.68;100.00
51299;BME280;37382;45.192;9.790;2023-02-12T11:44:22;102892.66;;;10.62;100.00
51299;BME280;37382;45.192;9.790;2023-02-12T11:46:55;102886.34;;;10.81;100.00
51299;BME280;37382;45.192;9.790;2023-02-12T11:49:32;102885.03;;;10.85;100.00
51299;BME280;37382;45.192;9.790;2023-02-12T11:52:02;102883.53;;;11.11;100.00
51299;BME280;37382;45.192;9.790;2023-02-12T11:54:50;102884.53;;;11.47;100.00
51299;BME280;37382;45.192;9.790;2023-02-12T11:57:44;102881.25;;;11.44;100.00
51299;BME280;37382;45.192;9.790;2023-02-12T12:05:48;102894.66;;;11.55;100.00
51299;BME280;37382;45.192;9.790;2023-02-12T12:08:27;102886.16;;;11.86;100.00
51299;BME280;37382;45.192;9.790;2023-02-12T12:11:15;102887.72;;;11.88;97.59
51299;BME280;37382;45.192;9.790;2023-02-12T12:13:52;102884.81;;;11.72;97.57
51299;BME280;37382;45.192;9.790;2023-02-12T12:16:30;102878.72;;;11.88;99.10
51299;BME280;37382;45.192;9.790;2023-02-12T12:19:27;102871.53;;;12.41;99.94
51299;BME280;37382;45.192;9.790;2023-02-12T12:22:43;102872.53;;;12.14;96.15
51299;BME280;37382;45.192;9.790;2023-02-12T12:25:28;102867.06;;;11.96;93.07
51299;BME280;37382;45.192;9.790;2023-02-12T12:41:46;102859.88;;;13.01;82.77
51299;BME280;37382;45.192;9.790;2023-02-12T12:53:32;102862.69;;;12.65;80.80
51299;BME280;37382;45.192;9.790;2023-02-12T13:04:18;102846.13;;;13.53;75.70
51299;BME280;37382;45.192;9.790;2023-02-12T13:09:46;102854.03;;;13.65;75.47
51299;BME280;37382;45.192;9.790;2023-02-12T13:17:35;102856.16;;;13.87;71.92
51299;BME280;37382;45.192;9.790;2023-02-12T13:25:32;102857.88;;;13.97;73.78
51299;BME280;37382;45.192;9.790;2023-02-12T13:28:03;102852.22;;;13.98;72.91
51299;BME280;37382;45.192;9.790;2023-02-12T13:30:44;102859.41;;;14.08;69.95
51299;BME280;37382;45.192;9.790;2023-02-12T13:33:26;102854.97;;;14.23;64.26
51299;BME280;37382;45.192;9.790;2023-02-12T13:35:57;102861.81;;;14.19;61.18
51299;BME280;37382;45.192;9.790;2023-02-12T13:38:30;102856.53;;;14.42;61.82
51299;BME280;37382;45.192;9.790;2023-02-12T13:41:03;102860.66;;;14.38;63.27
51299;BME280;37382;45.192;9.790;2023-02-12T13:43:55;102868.00;;;14.37;63.15
51299;BME280;37382;45.192;9.790;2023-02-12T13:46:31;102855.66;;;14.41;60.80
51299;BME280;37382;45.192;9.790;2023-02-12T13:49:23;102868.50;;;14.41;59.42
51299;BME280;37382;45.192;9.790;2023-02-12T13:54:53;102866.97;;;14.80;58.47
51299;BME280;37382;45.192;9.790;2023-02-12T13:57:22;102867.50;;;14.75;59.10
51299;BME280;37382;45.192;9.790;2023-02-12T13:59:51;102870.31;;;15.15;58.16
51299;BME280;37382;45.192;9.790;2023-02-12T14:05:24;102867.28;;;15.41;51.85
51299;BME280;37382;45.192;9.790;2023-02-12T14:07:58;102873.16;;;15.77;50.98
51299;BME280;37382;45.192;9.790;2023-02-12T14:10:34;102877.34;;;16.19;49.80
51299;BME280;37382;45.192;9.790;2023-02-12T14:13:22;102857.84;;;17.50;48.50
51299;BME280;37382;45.192;9.790;2023-02-12T14:15:53;102865.63;;;18.41;46.98
51299;BME280;37382;45.192;9.790;2023-02-12T14:18:23;102871.06;;;17.10;48.21
51299;BME280;37382;45.192;9.790;2023-02-12T14:23:41;102865.56;;;17.76;44.15
51299;BME280;37382;45.192;9.790;2023-02-12T14:26:17;102878.75;;;16.39;46.23
51299;BME280;37382;45.192;9.790;2023-02-12T14:28:53;102862.69;;;17.85;45.14
51299;BME280;37382;45.192;9.790;2023-02-12T14:39:26;102865.63;;;14.67;50.66
51299;BME280;37382;45.192;9.790;2023-02-12T14:44:43;102872.44;;;14.22;53.04
51299;BME280;37382;45.192;9.790;2023-02-12T14:50:14;102869.09;;;13.77;54.11
51299;BME280;37382;45.192;9.790;2023-02-12T14:52:50;102873.91;;;13.75;54.02
51299;BME280;37382;45.192;9.790;2023-02-12T14:55:23;102874.19;;;13.64;55.00
51299;BME280;37382;45.192;9.790;2023-02-12T14:57:57;102876.50;;;13.42;55.52
51299;BME280;37382;45.192;9.790;2023-02-12T15:00:30;102878.34;;;13.33;55.67
51299;BME280;37382;45.192;9.790;2023-02-12T15:03:06;102883.47;;;13.37;56.91
51299;BME280;37382;45.192;9.790;2023-02-12T15:05:43;102881.13;;;13.15;57.75
51299;BME280;37382;45.192;9.790;2023-02-12T15:08:34;102891.00;;;13.08;58.52
51299;BME280;37382;45.192;9.790;2023-02-12T15:11:06;102901.22;;;13.06;55.57
51299;BME280;37382;45.192;9.790;2023-02-12T15:13:46;102896.69;;;12.89;55.47
51299;BME280;37382;45.192;9.790;2023-02-12T15:16:26;102903.78;;;12.81;56.39
51299;BME280;37382;45.192;9.790;2023-02-12T15:19:06;102898.00;;;12.85;56.39
51299;BME280;37382;45.192;9.790;2023-02-12T15:21:39;102903.44;;;12.58;53.77
51299;BME280;37382;45.192;9.790;2023-02-12T15:24:10;102918.03;;;12.49;53.54
51299;BME280;37382;45.192;9.790;2023-02-12T15:26:45;102917.56;;;12.54;53.66
51299;BME280;37382;45.192;9.790;2023-02-12T15:29:21;102923.88;;;12.54;54.69
51299;BME280;37382;45.192;9.790;2023-02-12T15:31:53;102924.97;;;12.43;56.38
51299;BME280;37382;45.192;9.790;2023-02-12T15:34:24;102926.38;;;12.30;56.39
51299;BME280;37382;45.192;9.790;2023-02-12T15:36:56;102924.69;;;12.10;56.07
51299;BME280;37382;45.192;9.790;2023-02-12T15:39:25;102936.47;;;12.01;56.16
51299;BME280;37382;45.192;9.790;2023-02-12T15:41:54;102933.41;;;11.86;55.96
51299;BME280;37382;45.192;9.790;2023-02-12T15:44:26;102928.50;;;11.90;56.47
51299;BME280;37382;45.192;9.790;2023-02-12T15:49:36;102932.06;;;11.72;55.61
51299;BME280;37382;45.192;9.790;2023-02-12T15:52:21;102934.72;;;11.45;56.38
51299;BME280;37382;45.192;9.790;2023-02-12T15:54:50;102935.34;;;11.38;55.73
51299;BME280;37382;45.192;9.790;2023-02-12T15:57:21;102932.59;;;11.48;55.87
51299;BME280;37382;45.192;9.790;2023-02-12T15:59:51;102938.19;;;11.47;56.19
51299;BME280;37382;45.192;9.790;2023-02-12T16:02:24;102939.78;;;11.39;56.56
51299;BME280;37382;45.192;9.790;2023-02-12T16:04:54;102936.81;;;11.33;57.26
51299;BME280;37382;45.192;9.790;2023-02-12T16:07:22;102937.38;;;11.36;57.83
51299;BME280;37382;45.192;9.790;2023-02-12T16:09:51;102951.88;;;11.27;58.06
51299;BME280;37382;45.192;9.790;2023-02-12T16:12:23;102943.69;;;11.27;58.54
51299;BME280;37382;45.192;9.790;2023-02-12T16:14:55;102943.41;;;11.20;59.15
51299;BME280;37382;45.192;9.790;2023-02-12T16:17:28;102947.81;;;10.94;60.04
51299;BME280;37382;45.192;9.790;2023-02-12T16:22:43;102949.53;;;10.65;61.40
51299;BME280;37382;45.192;9.790;2023-02-12T16:25:17;102958.72;;;10.64;61.56
51299;BME280;37382;45.192;9.790;2023-02-12T16:30:30;102969.47;;;10.46;62.46
51299;BME280;37382;45.192;9.790;2023-02-12T16:33:00;102970.59;;;10.34;62.71
51299;BME280;37382;45.192;9.790;2023-02-12T16:35:33;102968.41;;;10.28;62.67
51299;BME280;37382;45.192;9.790;2023-02-12T16:43:38;102985.31;;;9.81;63.73
51299;BME280;37382;45.192;9.790;2023-02-12T16:46:06;102988.13;;;9.70;64.26
51299;BME280;37382;45.192;9.790;2023-02-12T16:48:40;102999.63;;;9.52;64.64
51299;BME280;37382;45.192;9.790;2023-02-12T16:51:26;102991.94;;;9.57;64.21
51299;BME280;37382;45.192;9.790;2023-02-12T16:53:56;102995.81;;;9.34;64.17
51299;BME280;37382;45.192;9.790;2023-02-12T16:56:36;103006.28;;;9.17;64.11
51299;BME280;37382;45.192;9.790;2023-02-12T16:59:08;103006.34;;;9.27;63.91
51299;BME280;37382;45.192;9.790;2023-02-12T17:01:35;103017.28;;;8.95;64.02
51299;BME280;37382;45.192;9.790;2023-02-12T17:04:06;103012.28;;;9.00;63.57
51299;BME280;37382;45.192;9.790;2023-02-12T17:06:34;103021.50;;;8.87;63.30
51299;BME280;37382;45.192;9.790;2023-02-12T17:09:02;103032.47;;;8.53;63.58
51299;BME280;37382;45.192;9.790;2023-02-12T17:11:29;103037.50;;;8.69;63.80
51299;BME280;37382;45.192;9.790;2023-02-12T17:13:57;103040.38;;;8.57;64.61
51299;BME280;37382;45.192;9.790;2023-02-12T17:16:24;103042.72;;;8.38;64.79
51299;BME280;37382;45.192;9.790;2023-02-12T17:18:59;103045.78;;;8.57;65.17
51299;BME280;37382;45.192;9.790;2023-02-12T17:21:32;103047.91;;;8.53;64.98
51299;BME280;37382;45.192;9.790;2023-02-12T17:24:27;103050.75;;;8.29;66.27
51299;BME280;37382;45.192;9.790;2023-02-12T17:26:56;103049.63;;;8.43;65.94
51299;BME280;37382;45.192;9.790;2023-02-12T17:29:24;103051.34;;;8.32;66.24
51299;BME280;37382;45.192;9.790;2023-02-12T17:31:52;103051.47;;;8.31;66.58
51299;BME280;37382;45.192;9.790;2023-02-12T17:34:22;103062.47;;;8.18;66.97
51299;BME280;37382;45.192;9.790;2023-02-12T17:36:49;103069.00;;;8.15;66.95
51299;BME280;37382;45.192;9.790;2023-02-12T17:39:18;103065.06;;;8.19;67.00
51299;BME280;37382;45.192;9.790;2023-02-12T17:41:46;103056.69;;;8.11;66.90
51299;BME280;37382;45.192;9.790;2023-02-12T17:44:14;103066.41;;;8.25;67.05
51299;BME280;37382;45.192;9.790;2023-02-12T17:46:42;103069.38;;;8.33;67.10
51299;BME280;37382;45.192;9.790;2023-02-12T17:49:10;103072.22;;;7.98;67.49
51299;BME280;37382;45.192;9.790;2023-02-12T17:51:38;103066.16;;;8.17;67.39
51299;BME280;37382;45.192;9.790;2023-02-12T17:54:05;103077.25;;;8.14;67.58
51299;BME280;37382;45.192;9.790;2023-02-12T17:56:33;103083.78;;;8.11;67.58
51299;BME280;37382;45.192;9.790;2023-02-12T17:59:01;103086.16;;;8.05;67.79
51299;BME280;37382;45.192;9.790;2023-02-12T18:01:29;103086.75;;;7.97;68.40
51299;BME280;37382;45.192;9.790;2023-02-12T18:03:57;103095.63;;;7.88;68.77
51299;BME280;37382;45.192;9.790;2023-02-12T18:06:29;103090.44;;;7.96;68.73
51299;BME280;37382;45.192;9.790;2023-02-12T18:08:58;103097.81;;;7.71;69.43
51299;BME280;37382;45.192;9.790;2023-02-12T18:11:28;103101.28;;;7.84;69.19
51299;BME280;37382;45.192;9.790;2023-02-12T18:13:56;103095.34;;;7.79;70.48
51299;BME280;37382;45.192;9.790;2023-02-12T18:16:27;103099.91;;;7.68;70.72
51299;BME280;37382;45.192;9.790;2023-02-12T18:18:55;103102.59;;;7.56;72.11
51299;BME280;37382;45.192;9.790;2023-02-12T18:21:23;103107.75;;;7.59;71.25
51299;BME280;37382;45.192;9.790;2023-02-12T18:23:52;103109.13;;;7.54;71.55
51299;BME280;37382;45.192;9.790;2023-02-12T18:26:20;103104.16;;;7.47;71.64
51299;BME280;37382;45.192;9.790;2023-02-12T18:28:48;103109.47;;;7.49;72.08
51299;BME280;37382;45.192;9.790;2023-02-12T18:31:17;103116.47;;;7.40;73.30
51299;BME280;37382;45.192;9.790;2023-02-12T18:33:45;103120.38;;;7.36;73.51
51299;BME280;37382;45.192;9.790;2023-02-12T18:36:15;103112.28;;;7.47;73.44
51299;BME280;37382;45.192;9.790;2023-02-12T18:38:45;103115.09;;;7.35;74.87
51299;BME280;37382;45.192;9.790;2023-02-12T18:41:22;103115.47;;;7.41;74.60
51299;BME280;37382;45.192;9.790;2023-02-12T18:43:50;103106.88;;;7.47;74.71
51299;BME280;37382;45.192;9.790;2023-02-12T18:46:24;103114.41;;;7.20;74.31
51299;BME280;37382;45.192;9.790;2023-02-12T18:48:53;103124.34;;;7.43;74.52
51299;BME280;37382;45.192;9.790;2023-02-12T18:51:24;103122.38;;;7.45;74.42
51299;BME280;37382;45.192;9.790;2023-02-12T18:53:57;103130.75;;;7.42;75.23
51299;BME280;37382;45.192;9.790;2023-02-12T18:56:40;103127.91;;;7.33;75.63
51299;BME280;37382;45.192;9.790;2023-02-12T18:59:12;103129.72;;;7.32;75.69
51299;BME280;37382;45.192;9.790;2023-02-12T19:01:41;103126.50;;;7.27;75.82
51299;BME280;37382;45.192;9.790;2023-02-12T19:04:11;103124.63;;;7.16;76.72
51299;BME280;37382;45.192;9.790;2023-02-12T19:06:41;103127.78;;;6.86;77.42
51299;BME280;37382;45.192;9.790;2023-02-12T19:09:10;103124.75;;;6.90;77.75
51299;BME280;37382;45.192;9.790;2023-02-12T19:11:38;103125.34;;;6.70;78.42
51299;BME280;37382;45.192;9.790;2023-02-12T19:14:05;103132.69;;;7.05;78.07
51299;BME280;37382;45.192;9.790;2023-02-12T19:16:33;103132.69;;;7.05;78.45
51299;BME280;37382;45.192;9.790;2023-02-12T19:19:01;103134.81;;;7.12;78.31
51299;BME280;37382;45.192;9.790;2023-02-12T19:21:29;103139.94;;;7.04;79.78
51299;BME280;37382;45.192;9.790;2023-02-12T19:23:58;103133.56;;;7.05;80.02
51299;BME280;37382;45.192;9.790;2023-02-12T19:26:27;103139.13;;;6.91;83.04
51299;BME280;37382;45.192;9.790;2023-02-12T19:28:56;103138.84;;;6.83;82.49
51299;BME280;37382;45.192;9.790;2023-02-12T19:31:27;103141.91;;;6.78;84.61
51299;BME280;37382;45.192;9.790;2023-02-12T19:33:57;103144.72;;;6.76;88.40
51299;BME280;37382;45.192;9.790;2023-02-12T19:36:26;103151.78;;;6.66;88.91
51299;BME280;37382;45.192;9.790;2023-02-12T19:38:55;103148.84;;;6.69;93.47
51299;BME280;37382;45.192;9.790;2023-02-12T19:41:25;103149.91;;;6.67;93.40
51299;BME280;37382;45.192;9.790;2023-02-12T19:43:58;103153.72;;;6.64;93.86
51299;BME280;37382;45.192;9.790;2023-02-12T19:46:29;103156.31;;;6.66;92.97
51299;BME280;37382;45.192;9.790;2023-02-12T19:49:00;103164.34;;;6.54;95.84
51299;BME280;37382;45.192;9.790;2023-02-12T19:51:29;103160.44;;;6.58;96.68
51299;BME280;37382;45.192;9.790;2023-02-12T19:54:01;103158.09;;;6.54;98.97
51299;BME280;37382;45.192;9.790;2023-02-12T19:56:30;103173.97;;;6.58;100.00
51299;BME280;37382;45.192;9.790;2023-02-12T19:58:58;103169.97;;;6.51;100.00
51299;BME280;37382;45.192;9.790;2023-02-12T20:01:26;103172.56;;;6.53;100.00
51299;BME280;37382;45.192;9.790;2023-02-12T20:03:54;103169.00;;;6.52;100.00
51299;BME280;37382;45.192;9.790;2023-02-12T20:06:25;103179.59;;;6.55;100.00
51299;BME280;37382;45.192;9.790;2023-02-12T20:08:52;103174.00;;;6.46;100.00
51299;BME280;37382;45.192;9.790;2023-02-12T20:11:23;103177.91;;;6.41;100.00
51299;BME280;37382;45.192;9.790;2023-02-12T20:13:51;103178.22;;;6.37;100.00
51299;BME280;37382;45.192;9.790;2023-02-12T20:16:20;103184.16;;;6.42;100.00
51299;BME280;37382;45.192;9.790;2023-02-12T20:18:50;103187.75;;;6.43;100.00